LIC0243 LEGE-LEBA
Flight info
| Callsign | LIC0243 |
|---|---|
| Flight time | 1h 20m |
| Altitude | 33000 |
| Route | MAMUK L110 SEROX N860 CRETA Z596 NEXAS N975 CJN N10 CRISA N864 MOCEQ |
| Aircraft | B738/M-SBDGIJ1LRWY/SB1 |
Departure
| Time | 2026-05-06 15:03 |
|---|---|
| Airport | Girona-Costa Brava Airport (LEGE) |
Arrival
| Time | 2026-05-06 16:23 |
|---|---|
| Airport | Córdoba Airport (LEBA) |
| Time | Latitude | Longitude | Altitude | Speed | Heading |
|---|---|---|---|---|---|
| 2026-05-06 14:36 | 41.89851 | 2.76473 | 426 ft | 0 kts | 106° |
| 2026-05-06 14:54 | 41.89852 | 2.76471 | 426 ft | 1 kts | 106° |
| 2026-05-06 14:55 | 41.89854 | 2.76459 | 426 ft | 2 kts | 101° |
| 2026-05-06 14:55 | 41.89854 | 2.76439 | 425 ft | 2 kts | 80° |
| 2026-05-06 14:55 | 41.89850 | 2.76420 | 425 ft | 2 kts | 63° |
| 2026-05-06 14:55 | 41.89842 | 2.76403 | 425 ft | 2 kts | 46° |
| 2026-05-06 14:56 | 41.89830 | 2.76390 | 425 ft | 2 kts | 30° |
| 2026-05-06 14:56 | 41.89820 | 2.76384 | 425 ft | 0 kts | 18° |
| 2026-05-06 14:56 | 41.89814 | 2.76382 | 425 ft | 0 kts | 15° |
| 2026-05-06 14:58 | 41.89818 | 2.76383 | 425 ft | 2 kts | 15° |
| 2026-05-06 14:59 | 41.89849 | 2.76391 | 425 ft | 6 kts | 358° |
| 2026-05-06 14:59 | 41.89886 | 2.76331 | 426 ft | 11 kts | 289° |
| 2026-05-06 14:59 | 41.89937 | 2.76233 | 426 ft | 15 kts | 358° |
| 2026-05-06 14:59 | 41.90055 | 2.76268 | 429 ft | 19 kts | 16° |
| 2026-05-06 15:00 | 41.90195 | 2.76321 | 433 ft | 22 kts | 17° |
| 2026-05-06 15:00 | 41.90351 | 2.76381 | 438 ft | 24 kts | 15° |
| 2026-05-06 15:00 | 41.90520 | 2.76445 | 444 ft | 26 kts | 15° |
| 2026-05-06 15:00 | 41.90702 | 2.76512 | 450 ft | 27 kts | 16° |
| 2026-05-06 15:01 | 41.90881 | 2.76580 | 456 ft | 27 kts | 17° |
| 2026-05-06 15:01 | 41.91058 | 2.76648 | 460 ft | 25 kts | 16° |
| 2026-05-06 15:01 | 41.91222 | 2.76708 | 462 ft | 23 kts | 15° |
| 2026-05-06 15:01 | 41.91373 | 2.76762 | 462 ft | 21 kts | 4° |
| 2026-05-06 15:02 | 41.91502 | 2.76686 | 463 ft | 18 kts | 330° |
| 2026-05-06 15:02 | 41.91485 | 2.76582 | 463 ft | 15 kts | 196° |
| 2026-05-06 15:02 | 41.91468 | 2.76575 | 463 ft | 0 kts | 195° |
| 2026-05-06 15:02 | 41.91325 | 2.76523 | 463 ft | 57 kts | 195° |
| 2026-05-06 15:03 | 41.90693 | 2.76278 | 450 ft | 127 kts | 195° |
| 2026-05-06 15:03 | 41.89691 | 2.75868 | 673 ft | 161 kts | 201° |
| 2026-05-06 15:03 | 41.88689 | 2.75308 | 1379 ft | 158 kts | 198° |
| 2026-05-06 15:03 | 41.87651 | 2.74830 | 2011 ft | 159 kts | 199° |
| 2026-05-06 15:04 | 41.86598 | 2.74340 | 2330 ft | 172 kts | 198° |
| 2026-05-06 15:04 | 41.85389 | 2.73771 | 2573 ft | 188 kts | 199° |
| 2026-05-06 15:04 | 41.84143 | 2.73178 | 2941 ft | 197 kts | 200° |
| 2026-05-06 15:04 | 41.82815 | 2.72539 | 3528 ft | 206 kts | 200° |
| 2026-05-06 15:05 | 41.81383 | 2.71850 | 3849 ft | 230 kts | 201° |
| 2026-05-06 15:05 | 41.79830 | 2.71096 | 4366 ft | 245 kts | 201° |
| 2026-05-06 15:05 | 41.78177 | 2.70290 | 4913 ft | 258 kts | 204° |
| 2026-05-06 15:05 | 41.76697 | 2.68994 | 5549 ft | 262 kts | 232° |
| 2026-05-06 15:06 | 41.75958 | 2.66816 | 6323 ft | 261 kts | 263° |
| 2026-05-06 15:06 | 41.76074 | 2.64409 | 7125 ft | 262 kts | 281° |
| 2026-05-06 15:06 | 41.76486 | 2.62008 | 7831 ft | 267 kts | 282° |
| 2026-05-06 15:06 | 41.76877 | 2.59600 | 8590 ft | 269 kts | 281° |
| 2026-05-06 15:07 | 41.77233 | 2.57114 | 9360 ft | 271 kts | 280° |
| 2026-05-06 15:07 | 41.77562 | 2.54643 | 10117 ft | 273 kts | 279° |
| 2026-05-06 15:07 | 41.77891 | 2.52104 | 10569 ft | 287 kts | 279° |
| 2026-05-06 15:07 | 41.78241 | 2.49392 | 11002 ft | 301 kts | 279° |
| 2026-05-06 15:08 | 41.78609 | 2.46559 | 11431 ft | 315 kts | 279° |
| 2026-05-06 15:08 | 41.78990 | 2.43637 | 12050 ft | 322 kts | 280° |
| 2026-05-06 15:08 | 41.79372 | 2.40707 | 12750 ft | 326 kts | 280° |
| 2026-05-06 15:08 | 41.79765 | 2.37682 | 13520 ft | 329 kts | 280° |
| 2026-05-06 15:09 | 41.80154 | 2.34685 | 14309 ft | 331 kts | 279° |
| 2026-05-06 15:09 | 41.80548 | 2.31629 | 15070 ft | 335 kts | 279° |
| 2026-05-06 15:09 | 41.80947 | 2.28534 | 15821 ft | 338 kts | 279° |
| 2026-05-06 15:09 | 41.81345 | 2.25447 | 16564 ft | 342 kts | 278° |
| 2026-05-06 15:10 | 41.81753 | 2.22276 | 17290 ft | 345 kts | 279° |
| 2026-05-06 15:10 | 41.82157 | 2.19125 | 18018 ft | 348 kts | 279° |
| 2026-05-06 15:10 | 41.82568 | 2.15918 | 18782 ft | 349 kts | 278° |
| 2026-05-06 15:10 | 41.82970 | 2.12767 | 19568 ft | 348 kts | 278° |
| 2026-05-06 15:11 | 41.83293 | 2.09550 | 20269 ft | 349 kts | 274° |
| 2026-05-06 15:11 | 41.83360 | 2.06278 | 20926 ft | 350 kts | 266° |
| 2026-05-06 15:11 | 41.83125 | 2.03043 | 21591 ft | 351 kts | 261° |
| 2026-05-06 15:11 | 41.82726 | 1.99821 | 22257 ft | 352 kts | 259° |
| 2026-05-06 15:12 | 41.82261 | 1.96613 | 22922 ft | 352 kts | 258° |
| 2026-05-06 15:12 | 41.81778 | 1.93408 | 23536 ft | 354 kts | 258° |
| 2026-05-06 15:12 | 41.81293 | 1.90192 | 24076 ft | 357 kts | 258° |
| 2026-05-06 15:12 | 41.80808 | 1.86928 | 24616 ft | 360 kts | 258° |
| 2026-05-06 15:13 | 41.80325 | 1.83641 | 25243 ft | 360 kts | 258° |
| 2026-05-06 15:13 | 41.79840 | 1.80317 | 25662 ft | 365 kts | 258° |
| 2026-05-06 15:13 | 41.79360 | 1.77005 | 26240 ft | 365 kts | 258° |
| 2026-05-06 15:13 | 41.78874 | 1.73649 | 26707 ft | 369 kts | 258° |
| 2026-05-06 15:14 | 41.78387 | 1.70290 | 27153 ft | 371 kts | 258° |
| 2026-05-06 15:14 | 41.77893 | 1.66888 | 27620 ft | 374 kts | 258° |
| 2026-05-06 15:14 | 41.77394 | 1.63457 | 28043 ft | 376 kts | 258° |
| 2026-05-06 15:14 | 41.76895 | 1.60021 | 28453 ft | 379 kts | 258° |
| 2026-05-06 15:15 | 41.76394 | 1.56558 | 28932 ft | 380 kts | 258° |
| 2026-05-06 15:15 | 41.75893 | 1.53083 | 29309 ft | 383 kts | 258° |
| 2026-05-06 15:15 | 41.75386 | 1.49568 | 29731 ft | 385 kts | 258° |
| 2026-05-06 15:15 | 41.74880 | 1.46064 | 30164 ft | 386 kts | 258° |
| 2026-05-06 15:16 | 41.74366 | 1.42520 | 30682 ft | 384 kts | 258° |
| 2026-05-06 15:16 | 41.73864 | 1.39062 | 31285 ft | 380 kts | 258° |
| 2026-05-06 15:16 | 41.73358 | 1.35592 | 31715 ft | 380 kts | 258° |
| 2026-05-06 15:16 | 41.72852 | 1.32137 | 32156 ft | 380 kts | 257° |
| 2026-05-06 15:17 | 41.72344 | 1.28670 | 32584 ft | 379 kts | 257° |
| 2026-05-06 15:17 | 41.71839 | 1.25231 | 32883 ft | 381 kts | 257° |
| 2026-05-06 15:17 | 41.71326 | 1.21752 | 32885 ft | 382 kts | 257° |
| 2026-05-06 15:18 | 41.70297 | 1.14832 | 32887 ft | 377 kts | 257° |
| 2026-05-06 15:18 | 41.68829 | 1.08096 | 32887 ft | 378 kts | 249° |
| 2026-05-06 15:19 | 41.66861 | 1.01597 | 32882 ft | 377 kts | 247° |
| 2026-05-06 15:19 | 41.64803 | 0.95123 | 32884 ft | 378 kts | 247° |
| 2026-05-06 15:20 | 41.62756 | 0.88647 | 32886 ft | 378 kts | 248° |
| 2026-05-06 15:20 | 41.60714 | 0.82136 | 32895 ft | 380 kts | 248° |
| 2026-05-06 15:21 | 41.58676 | 0.75629 | 32896 ft | 380 kts | 248° |
| 2026-05-06 15:21 | 41.56612 | 0.69043 | 32895 ft | 393 kts | 248° |
| 2026-05-06 15:22 | 41.54215 | 0.62504 | 32893 ft | 393 kts | 242° |
| 2026-05-06 15:22 | 41.51333 | 0.56299 | 32892 ft | 397 kts | 239° |
| 2026-05-06 15:23 | 41.48312 | 0.50100 | 32885 ft | 398 kts | 239° |
| 2026-05-06 15:23 | 41.45292 | 0.43892 | 32884 ft | 398 kts | 239° |
| 2026-05-06 15:24 | 41.42283 | 0.37671 | 32889 ft | 398 kts | 239° |
| 2026-05-06 15:24 | 41.39275 | 0.31475 | 32888 ft | 400 kts | 237° |
| 2026-05-06 15:25 | 41.35677 | 0.25827 | 32888 ft | 403 kts | 223° |
| 2026-05-06 15:25 | 41.30876 | 0.21859 | 32889 ft | 411 kts | 209° |
| 2026-05-06 15:26 | 41.25400 | 0.19380 | 32893 ft | 419 kts | 199° |
| 2026-05-06 15:26 | 41.19660 | 0.17887 | 32898 ft | 422 kts | 195° |
| 2026-05-06 15:27 | 41.13856 | 0.16650 | 32907 ft | 421 kts | 195° |
| 2026-05-06 15:27 | 41.08196 | 0.14854 | 32911 ft | 416 kts | 202° |
| 2026-05-06 15:28 | 41.02696 | 0.12590 | 32913 ft | 415 kts | 203° |
| 2026-05-06 15:28 | 40.97434 | 0.09633 | 32918 ft | 406 kts | 216° |
| 2026-05-06 15:29 | 40.93078 | 0.05079 | 32919 ft | 398 kts | 227° |
| 2026-05-06 15:29 | 40.89753 | -0.00730 | 32924 ft | 394 kts | 243° |
| 2026-05-06 15:30 | 40.87806 | -0.07456 | 32924 ft | 396 kts | 255° |
| 2026-05-06 15:30 | 40.87075 | -0.14688 | 32927 ft | 398 kts | 265° |
| 2026-05-06 15:31 | 40.87061 | -0.21987 | 32930 ft | 399 kts | 268° |
| 2026-05-06 15:31 | 40.87156 | -0.29340 | 32932 ft | 399 kts | 268° |
| 2026-05-06 15:32 | 40.87221 | -0.40289 | 32937 ft | 399 kts | 268° |
| 2026-05-06 15:32 | 40.87224 | -0.47640 | 32943 ft | 398 kts | 268° |
| 2026-05-06 15:33 | 40.87209 | -0.54937 | 32944 ft | 401 kts | 268° |
| 2026-05-06 15:33 | 40.87186 | -0.62270 | 32947 ft | 399 kts | 268° |
| 2026-05-06 15:34 | 40.87156 | -0.69603 | 32947 ft | 400 kts | 267° |
| 2026-05-06 15:34 | 40.86953 | -0.76959 | 32952 ft | 401 kts | 262° |
| 2026-05-06 15:35 | 40.85792 | -0.84099 | 32947 ft | 400 kts | 252° |
| 2026-05-06 15:35 | 40.83951 | -0.91103 | 32939 ft | 406 kts | 250° |
| 2026-05-06 15:36 | 40.81970 | -0.98076 | 32942 ft | 405 kts | 249° |
| 2026-05-06 15:36 | 40.79995 | -1.05037 | 32943 ft | 406 kts | 250° |
| 2026-05-06 15:37 | 40.78031 | -1.12014 | 32941 ft | 404 kts | 250° |
| 2026-05-06 15:37 | 40.76083 | -1.18962 | 32943 ft | 404 kts | 250° |
| 2026-05-06 15:38 | 40.74139 | -1.25892 | 32948 ft | 404 kts | 250° |
| 2026-05-06 15:38 | 40.72195 | -1.32816 | 32943 ft | 405 kts | 250° |
| 2026-05-06 15:39 | 40.70244 | -1.39755 | 32950 ft | 404 kts | 250° |
| 2026-05-06 15:39 | 40.68284 | -1.46701 | 32952 ft | 405 kts | 250° |
| 2026-05-06 15:40 | 40.66320 | -1.53645 | 32955 ft | 404 kts | 250° |
| 2026-05-06 15:40 | 40.64356 | -1.60573 | 32956 ft | 405 kts | 250° |
| 2026-05-06 15:41 | 40.62371 | -1.67556 | 32955 ft | 407 kts | 249° |
| 2026-05-06 15:41 | 40.60383 | -1.74531 | 32959 ft | 406 kts | 249° |
| 2026-05-06 15:42 | 40.58402 | -1.81461 | 32961 ft | 405 kts | 249° |
| 2026-05-06 15:42 | 40.56405 | -1.88428 | 32959 ft | 407 kts | 249° |
| 2026-05-06 15:43 | 40.54417 | -1.95342 | 32962 ft | 406 kts | 249° |
| 2026-05-06 15:43 | 40.52423 | -2.02259 | 32963 ft | 405 kts | 249° |
| 2026-05-06 15:44 | 40.50413 | -2.09214 | 32956 ft | 407 kts | 249° |
| 2026-05-06 15:44 | 40.48402 | -2.16146 | 32953 ft | 405 kts | 249° |
| 2026-05-06 15:45 | 40.46404 | -2.23009 | 32947 ft | 406 kts | 249° |
| 2026-05-06 15:45 | 40.44377 | -2.29956 | 32938 ft | 408 kts | 249° |
| 2026-05-06 15:46 | 40.42346 | -2.36898 | 32927 ft | 406 kts | 249° |
| 2026-05-06 15:46 | 40.40323 | -2.43794 | 32928 ft | 407 kts | 249° |
| 2026-05-06 15:47 | 40.38235 | -2.50664 | 32929 ft | 407 kts | 246° |
| 2026-05-06 15:47 | 40.35440 | -2.57105 | 32935 ft | 409 kts | 236° |
| 2026-05-06 15:48 | 40.31937 | -2.62955 | 32929 ft | 410 kts | 232° |
| 2026-05-06 15:48 | 40.28246 | -2.68677 | 32928 ft | 410 kts | 231° |
| 2026-05-06 15:49 | 40.24560 | -2.74373 | 32928 ft | 409 kts | 231° |
| 2026-05-06 15:49 | 40.20900 | -2.80063 | 32926 ft | 409 kts | 232° |
| 2026-05-06 15:50 | 40.17252 | -2.85749 | 32926 ft | 408 kts | 232° |
| 2026-05-06 15:50 | 40.13618 | -2.91419 | 32924 ft | 407 kts | 232° |
| 2026-05-06 15:51 | 40.09983 | -2.97082 | 32925 ft | 407 kts | 232° |
| 2026-05-06 15:51 | 40.06369 | -3.02704 | 32924 ft | 407 kts | 232° |
| 2026-05-06 15:52 | 40.02713 | -3.08381 | 32926 ft | 406 kts | 232° |
| 2026-05-06 15:52 | 39.99071 | -3.14025 | 32923 ft | 405 kts | 231° |
| 2026-05-06 15:53 | 39.95453 | -3.19621 | 32922 ft | 407 kts | 231° |
| 2026-05-06 15:53 | 39.91815 | -3.25240 | 32919 ft | 407 kts | 232° |
| 2026-05-06 15:54 | 39.88147 | -3.30894 | 32922 ft | 407 kts | 231° |
| 2026-05-06 15:54 | 39.84495 | -3.36512 | 32921 ft | 408 kts | 231° |
| 2026-05-06 15:55 | 39.80840 | -3.42126 | 32918 ft | 406 kts | 231° |
| 2026-05-06 15:55 | 39.77153 | -3.47734 | 32915 ft | 407 kts | 230° |
| 2026-05-06 15:56 | 39.73226 | -3.53046 | 32906 ft | 407 kts | 227° |
| 2026-05-06 15:56 | 39.69215 | -3.58225 | 32913 ft | 408 kts | 227° |
| 2026-05-06 15:57 | 39.65208 | -3.63426 | 32905 ft | 407 kts | 227° |
| 2026-05-06 15:57 | 39.61211 | -3.68614 | 32901 ft | 408 kts | 226° |
| 2026-05-06 15:58 | 39.57200 | -3.73813 | 32901 ft | 407 kts | 226° |
| 2026-05-06 15:58 | 39.53215 | -3.78991 | 32906 ft | 407 kts | 227° |
| 2026-05-06 15:59 | 39.49210 | -3.84229 | 32901 ft | 408 kts | 227° |
| 2026-05-06 15:59 | 39.45211 | -3.89450 | 32906 ft | 406 kts | 226° |
| 2026-05-06 16:00 | 39.41256 | -3.94601 | 32905 ft | 397 kts | 227° |
| 2026-05-06 16:00 | 39.39351 | -3.97075 | 32892 ft | 381 kts | 226° |
| 2026-05-06 16:00 | 39.37501 | -3.99475 | 32576 ft | 373 kts | 227° |
| 2026-05-06 16:01 | 39.35691 | -4.01825 | 32173 ft | 367 kts | 227° |
| 2026-05-06 16:01 | 39.33908 | -4.04137 | 31871 ft | 362 kts | 227° |
| 2026-05-06 16:01 | 39.32114 | -4.06464 | 31445 ft | 370 kts | 227° |
| 2026-05-06 16:01 | 39.30289 | -4.08832 | 30976 ft | 371 kts | 227° |
| 2026-05-06 16:02 | 39.28485 | -4.11169 | 30517 ft | 367 kts | 227° |
| 2026-05-06 16:02 | 39.26691 | -4.13486 | 30045 ft | 362 kts | 227° |
| 2026-05-06 16:02 | 39.24912 | -4.15782 | 29579 ft | 358 kts | 227° |
| 2026-05-06 16:02 | 39.23179 | -4.18019 | 29135 ft | 353 kts | 227° |
| 2026-05-06 16:03 | 39.21458 | -4.20239 | 28690 ft | 355 kts | 227° |
| 2026-05-06 16:03 | 39.19684 | -4.22527 | 28225 ft | 361 kts | 227° |
| 2026-05-06 16:03 | 39.17909 | -4.24813 | 27753 ft | 358 kts | 227° |
| 2026-05-06 16:03 | 39.16168 | -4.27053 | 27291 ft | 353 kts | 227° |
| 2026-05-06 16:04 | 39.14445 | -4.29266 | 26843 ft | 349 kts | 227° |
| 2026-05-06 16:04 | 39.12726 | -4.31474 | 26382 ft | 345 kts | 227° |
| 2026-05-06 16:04 | 39.11038 | -4.33642 | 25933 ft | 343 kts | 227° |
| 2026-05-06 16:04 | 39.09355 | -4.35805 | 25486 ft | 349 kts | 227° |
| 2026-05-06 16:05 | 39.07618 | -4.38035 | 25005 ft | 350 kts | 227° |
| 2026-05-06 16:05 | 39.05927 | -4.40200 | 24548 ft | 346 kts | 227° |
| 2026-05-06 16:05 | 39.04233 | -4.42367 | 24089 ft | 342 kts | 227° |
| 2026-05-06 16:05 | 39.02566 | -4.44499 | 23634 ft | 338 kts | 227° |
| 2026-05-06 16:06 | 39.00883 | -4.46651 | 23196 ft | 341 kts | 227° |
| 2026-05-06 16:06 | 38.99197 | -4.48809 | 22735 ft | 344 kts | 227° |
| 2026-05-06 16:06 | 38.97525 | -4.50942 | 22290 ft | 340 kts | 227° |
| 2026-05-06 16:06 | 38.95815 | -4.53012 | 21840 ft | 337 kts | 223° |
| 2026-05-06 16:07 | 38.93914 | -4.54765 | 21384 ft | 335 kts | 211° |
| 2026-05-06 16:07 | 38.91787 | -4.55920 | 20940 ft | 335 kts | 200° |
| 2026-05-06 16:07 | 38.89506 | -4.56616 | 20495 ft | 334 kts | 194° |
| 2026-05-06 16:07 | 38.87232 | -4.57127 | 20046 ft | 338 kts | 192° |
| 2026-05-06 16:08 | 38.84867 | -4.57601 | 19575 ft | 340 kts | 192° |
| 2026-05-06 16:08 | 38.82543 | -4.58056 | 19111 ft | 338 kts | 192° |
| 2026-05-06 16:08 | 38.80254 | -4.58507 | 18657 ft | 335 kts | 192° |
| 2026-05-06 16:08 | 38.77934 | -4.58971 | 18195 ft | 332 kts | 192° |
| 2026-05-06 16:09 | 38.75677 | -4.59429 | 17741 ft | 329 kts | 192° |
| 2026-05-06 16:09 | 38.73411 | -4.59894 | 17286 ft | 327 kts | 192° |
| 2026-05-06 16:09 | 38.71194 | -4.60353 | 16842 ft | 324 kts | 192° |
| 2026-05-06 16:09 | 38.68977 | -4.60813 | 16394 ft | 322 kts | 192° |
| 2026-05-06 16:10 | 38.66768 | -4.61272 | 15945 ft | 320 kts | 192° |
| 2026-05-06 16:10 | 38.64583 | -4.61725 | 15508 ft | 317 kts | 192° |
| 2026-05-06 16:10 | 38.62417 | -4.62174 | 15079 ft | 315 kts | 191° |
| 2026-05-06 16:10 | 38.60252 | -4.62622 | 14644 ft | 313 kts | 191° |
| 2026-05-06 16:11 | 38.58107 | -4.63066 | 14225 ft | 310 kts | 191° |
| 2026-05-06 16:11 | 38.56009 | -4.63500 | 13808 ft | 308 kts | 191° |
| 2026-05-06 16:11 | 38.53879 | -4.63940 | 13394 ft | 306 kts | 191° |
| 2026-05-06 16:11 | 38.51792 | -4.64371 | 12982 ft | 304 kts | 191° |
| 2026-05-06 16:12 | 38.49726 | -4.64797 | 12572 ft | 302 kts | 191° |
| 2026-05-06 16:12 | 38.47661 | -4.65224 | 12172 ft | 301 kts | 190° |
| 2026-05-06 16:12 | 38.45552 | -4.65659 | 11757 ft | 306 kts | 189° |
| 2026-05-06 16:12 | 38.43466 | -4.66089 | 11350 ft | 305 kts | 189° |
| 2026-05-06 16:13 | 38.41383 | -4.66518 | 10944 ft | 303 kts | 189° |
| 2026-05-06 16:13 | 38.39295 | -4.66948 | 10534 ft | 301 kts | 189° |
| 2026-05-06 16:13 | 38.37241 | -4.67369 | 10182 ft | 297 kts | 189° |
| 2026-05-06 16:13 | 38.35240 | -4.67779 | 10017 ft | 287 kts | 190° |
| 2026-05-06 16:14 | 38.33292 | -4.68179 | 9836 ft | 278 kts | 190° |
| 2026-05-06 16:14 | 38.31389 | -4.68459 | 9463 ft | 278 kts | 181° |
| 2026-05-06 16:14 | 38.29493 | -4.68083 | 9207 ft | 274 kts | 161° |
| 2026-05-06 16:14 | 38.27759 | -4.67136 | 8789 ft | 276 kts | 154° |
| 2026-05-06 16:15 | 38.26040 | -4.66051 | 8415 ft | 276 kts | 153° |
| 2026-05-06 16:15 | 38.24315 | -4.64995 | 8036 ft | 276 kts | 154° |
| 2026-05-06 16:15 | 38.22559 | -4.63976 | 7711 ft | 273 kts | 155° |
| 2026-05-06 16:15 | 38.20831 | -4.63003 | 7377 ft | 271 kts | 156° |
| 2026-05-06 16:16 | 38.19111 | -4.62053 | 7055 ft | 269 kts | 157° |
| 2026-05-06 16:16 | 38.17352 | -4.61336 | 6699 ft | 267 kts | 171° |
| 2026-05-06 16:16 | 38.15505 | -4.61376 | 6351 ft | 265 kts | 190° |
| 2026-05-06 16:16 | 38.13721 | -4.61851 | 6155 ft | 257 kts | 193° |
| 2026-05-06 16:17 | 38.12000 | -4.62347 | 5996 ft | 249 kts | 192° |
| 2026-05-06 16:17 | 38.10331 | -4.62796 | 5819 ft | 242 kts | 194° |
| 2026-05-06 16:17 | 38.08748 | -4.63483 | 5563 ft | 238 kts | 209° |
| 2026-05-06 16:17 | 38.07391 | -4.64646 | 5129 ft | 243 kts | 219° |
| 2026-05-06 16:18 | 38.06074 | -4.66027 | 4683 ft | 241 kts | 220° |
| 2026-05-06 16:18 | 38.04810 | -4.67341 | 4371 ft | 233 kts | 219° |
| 2026-05-06 16:18 | 38.03572 | -4.68568 | 4197 ft | 220 kts | 217° |
| 2026-05-06 16:18 | 38.02379 | -4.69722 | 4031 ft | 208 kts | 217° |
| 2026-05-06 16:19 | 38.01218 | -4.70746 | 3867 ft | 199 kts | 208° |
| 2026-05-06 16:19 | 38.00011 | -4.71565 | 3781 ft | 194 kts | 209° |
| 2026-05-06 16:19 | 37.98840 | -4.72458 | 3591 ft | 198 kts | 212° |
| 2026-05-06 16:19 | 37.97689 | -4.73414 | 3295 ft | 198 kts | 213° |
| 2026-05-06 16:20 | 37.96551 | -4.74375 | 3037 ft | 195 kts | 213° |
| 2026-05-06 16:20 | 37.95453 | -4.75301 | 2782 ft | 183 kts | 213° |
| 2026-05-06 16:20 | 37.94409 | -4.76179 | 2519 ft | 175 kts | 213° |
| 2026-05-06 16:20 | 37.93399 | -4.77029 | 2351 ft | 169 kts | 213° |
| 2026-05-06 16:21 | 37.92437 | -4.77839 | 2074 ft | 161 kts | 213° |
| 2026-05-06 16:21 | 37.91550 | -4.78585 | 1864 ft | 149 kts | 213° |
| 2026-05-06 16:21 | 37.90700 | -4.79300 | 1686 ft | 149 kts | 213° |
| 2026-05-06 16:21 | 37.89836 | -4.80028 | 1481 ft | 147 kts | 213° |
| 2026-05-06 16:22 | 37.89024 | -4.80829 | 1228 ft | 148 kts | 221° |
| 2026-05-06 16:22 | 37.88265 | -4.81714 | 1016 ft | 147 kts | 219° |
| 2026-05-06 16:22 | 37.87469 | -4.82509 | 826 ft | 144 kts | 214° |
| 2026-05-06 16:22 | 37.86635 | -4.83180 | 678 ft | 143 kts | 208° |
| 2026-05-06 16:23 | 37.85749 | -4.83803 | 556 ft | 145 kts | 207° |
| 2026-05-06 16:23 | 37.84857 | -4.84424 | 333 ft | 146 kts | 207° |
| 2026-05-06 16:23 | 37.84106 | -4.84952 | 314 ft | 85 kts | 209° |
| 2026-05-06 16:23 | 37.83779 | -4.85182 | 315 ft | 20 kts | 208° |
| 2026-05-06 16:24 | 37.83690 | -4.85224 | 314 ft | 8 kts | 147° |
| 2026-05-06 16:24 | 37.83736 | -4.85190 | 315 ft | 18 kts | 22° |
| 2026-05-06 16:24 | 37.83901 | -4.85096 | 315 ft | 21 kts | 28° |
| 2026-05-06 16:24 | 37.84026 | -4.85009 | 314 ft | 20 kts | 29° |
| 2026-05-06 16:25 | 37.84150 | -4.84923 | 314 ft | 19 kts | 28° |
| 2026-05-06 16:25 | 37.84269 | -4.84840 | 315 ft | 19 kts | 28° |
| 2026-05-06 16:25 | 37.84350 | -4.84731 | 315 ft | 17 kts | 97° |
| 2026-05-06 16:25 | 37.84315 | -4.84631 | 316 ft | 10 kts | 126° |
| 2026-05-06 16:26 | 37.84261 | -4.84622 | 316 ft | 6 kts | 144° |
| 2026-05-06 16:26 | 37.84255 | -4.84612 | 316 ft | 0 kts | 118° |